Time;durP1;ratioP1;P1;durP2;ratioP2;P2;SDS_P1;SDS_P2;PMS_P1;PMS_P2;Temp;Humidity;BMP_temperature;BMP_pressure;BME280_temperature;BME280_humidity;BME280_pressure;Samples;Min_cycle;Max_cycle;Signal;HPM_P1;HPM_P2
2024/02/18 00:00:16;;;;;;;1.08;0.50;;;15.20;74.50;;;;;;5000667;28;20584;-80
2024/02/18 00:02:41;;;;;;;0.40;0.35;;;15.20;74.50;;;;;;5018008;28;20057;-80
2024/02/18 00:05:07;;;;;;;0.90;0.40;;;15.20;74.50;;;;;;5014176;28;20444;-80
2024/02/18 00:07:33;;;;;;;0.20;0.20;;;15.20;74.50;;;;;;5018926;28;20038;-80
2024/02/18 00:10:00;;;;;;;0.63;0.63;;;15.20;74.50;;;;;;5002475;28;20100;-80
2024/02/18 00:12:26;;;;;;;0.30;0.30;;;15.20;74.50;;;;;;5002690;28;20049;-80
2024/02/18 00:14:52;;;;;;;0.40;0.38;;;15.20;74.50;;;;;;5004169;28;20033;-80
2024/02/18 00:17:18;;;;;;;0.60;0.40;;;15.20;74.50;;;;;;5003258;28;20488;-80
2024/02/18 00:19:43;;;;;;;0.30;0.30;;;15.20;74.50;;;;;;5003709;28;20058;-80
2024/02/18 00:22:09;;;;;;;0.40;0.40;;;15.20;74.60;;;;;;5005036;28;20129;-80
2024/02/18 00:24:34;;;;;;;0.38;0.38;;;15.20;74.60;;;;;;5006374;28;20053;-81
2024/02/18 00:27:00;;;;;;;0.40;0.40;;;15.20;74.50;;;;;;4986958;28;20045;-80
2024/02/18 00:29:25;;;;;;;0.40;0.40;;;15.20;74.50;;;;;;5019968;28;20538;-80
2024/02/18 00:31:51;;;;;;;0.40;0.40;;;15.20;74.70;;;;;;5004309;28;20465;-80
2024/02/18 00:34:22;;;;;;;0.47;0.38;;;15.20;75.30;;;;;;5019835;28;20057;-81
2024/02/18 00:36:48;;;;;;;0.30;0.30;;;15.20;74.50;;;;;;5004374;28;20045;-80
2024/02/18 00:39:14;;;;;;;0.63;0.32;;;15.20;74.50;;;;;;4999398;28;20042;-80
2024/02/18 00:41:41;;;;;;;0.50;0.40;;;15.20;74.50;;;;;;5006664;28;20041;-81
2024/02/18 00:44:07;;;;;;;0.65;0.40;;;15.10;74.50;;;;;;5003214;28;20054;-80
2024/02/18 00:46:32;;;;;;;0.63;0.63;;;15.20;74.50;;;;;;5004917;28;20922;-81
2024/02/18 00:48:58;;;;;;;0.20;0.20;;;15.20;74.70;;;;;;5000856;28;20030;-81
2024/02/18 00:51:25;;;;;;;0.30;0.30;;;15.20;74.50;;;;;;5000264;28;20499;-80
2024/02/18 00:53:51;;;;;;;0.30;0.30;;;15.20;74.50;;;;;;4998656;28;20042;-81
2024/02/18 00:56:16;;;;;;;0.30;0.25;;;15.20;74.50;;;;;;5016069;28;20057;-80
2024/02/18 00:58:42;;;;;;;0.40;0.40;;;15.20;74.50;;;;;;5003852;28;20034;-80
2024/02/18 01:01:07;;;;;;;0.80;0.50;;;15.20;74.50;;;;;;5003705;28;20064;-80
2024/02/18 01:03:33;;;;;;;0.45;0.45;;;15.20;74.40;;;;;;5001418;28;20030;-81
2024/02/18 01:05:59;;;;;;;0.43;0.43;;;15.10;74.50;;;;;;5004924;28;20436;-80
2024/02/18 01:08:24;;;;;;;0.47;0.35;;;15.20;74.50;;;;;;5003551;28;20045;-81
2024/02/18 01:10:50;;;;;;;0.40;0.40;;;15.10;74.50;;;;;;5018313;28;20041;-80
2024/02/18 01:13:16;;;;;;;0.40;0.40;;;15.20;74.40;;;;;;5001999;28;20153;-80
2024/02/18 01:15:42;;;;;;;0.93;0.60;;;15.20;74.40;;;;;;5005348;28;20246;-81
2024/02/18 01:18:07;;;;;;;0.30;0.30;;;15.20;74.50;;;;;;4996578;28;20428;-80
2024/02/18 01:20:33;;;;;;;0.90;0.60;;;15.10;74.40;;;;;;5002454;28;20061;-81
2024/02/18 01:22:58;;;;;;;0.40;0.40;;;15.20;74.40;;;;;;5016522;28;20038;-80
2024/02/18 01:25:24;;;;;;;0.50;0.50;;;15.20;74.40;;;;;;4996049;28;20045;-81
2024/02/18 01:27:50;;;;;;;0.50;0.40;;;15.20;74.50;;;;;;5006612;28;20040;-80
2024/02/18 01:30:19;;;;;;;0.47;0.40;;;15.20;74.50;;;;;;4998817;28;20046;-81
2024/02/18 01:32:46;;;;;;;0.32;0.30;;;15.20;74.50;;;;;;5004206;28;20046;-81
2024/02/18 01:35:11;;;;;;;0.50;0.50;;;15.10;74.50;;;;;;5018409;28;20053;-81
2024/02/18 01:37:37;;;;;;;0.35;0.35;;;15.20;74.50;;;;;;5019353;28;20105;-81
2024/02/18 01:40:03;;;;;;;0.30;0.30;;;15.20;74.50;;;;;;5000911;28;20076;-81
2024/02/18 01:42:28;;;;;;;0.47;0.35;;;15.20;74.40;;;;;;4998910;28;20534;-80
2024/02/18 01:44:54;;;;;;;0.30;0.30;;;15.20;74.40;;;;;;5013372;28;20033;-80
2024/02/18 01:47:20;;;;;;;0.20;0.20;;;15.20;74.50;;;;;;5003668;28;20033;-81
2024/02/18 01:49:45;;;;;;;0.20;0.20;;;15.20;74.50;;;;;;5013651;28;20077;-81
2024/02/18 01:52:11;;;;;;;0.30;0.20;;;15.10;74.40;;;;;;5016370;28;20074;-81
2024/02/18 01:54:37;;;;;;;0.30;0.30;;;15.20;74.50;;;;;;5000975;28;20161;-81
2024/02/18 01:57:05;;;;;;;0.55;0.55;;;15.10;74.40;;;;;;5000453;28;20044;-80
2024/02/18 01:59:31;;;;;;;0.70;0.52;;;15.10;74.40;;;;;;4997020;28;20038;-81
2024/02/18 02:01:57;;;;;;;0.40;0.40;;;15.10;74.40;;;;;;4999745;28;20028;-80
2024/02/18 02:04:22;;;;;;;0.35;0.20;;;15.10;74.40;;;;;;5017929;28;20049;-81
2024/02/18 02:06:49;;;;;;;0.70;0.30;;;15.20;74.50;;;;;;5003030;28;20034;-81
2024/02/18 02:09:14;;;;;;;0.30;0.30;;;15.10;74.40;;;;;;4984211;28;20033;-80
2024/02/18 02:11:40;;;;;;;0.30;0.20;;;15.10;74.40;;;;;;4995415;28;20121;-80
2024/02/18 02:14:06;;;;;;;0.30;0.30;;;15.10;74.40;;;;;;5015604;28;20030;-80
2024/02/18 02:16:31;;;;;;;0.20;0.20;;;15.20;74.50;;;;;;5000667;28;20415;-81
2024/02/18 02:18:57;;;;;;;0.55;0.32;;;15.10;74.40;;;;;;5004004;28;20034;-80
2024/02/18 02:21:22;;;;;;;0.57;0.40;;;15.10;74.40;;;;;;5017891;28;20999;-81
2024/02/18 02:23:49;;;;;;;0.25;0.20;;;15.10;74.50;;;;;;5014395;28;20496;-81
2024/02/18 02:26:14;;;;;;;0.65;0.35;;;15.10;74.40;;;;;;5003151;28;20046;-81
2024/02/18 02:28:44;;;;;;;0.40;0.40;;;15.10;74.40;;;;;;4983942;28;20508;-81
2024/02/18 02:31:10;;;;;;;0.43;0.30;;;15.10;74.50;;;;;;4986675;28;20045;-81
2024/02/18 02:33:35;;;;;;;0.22;0.20;;;15.10;74.40;;;;;;5004085;28;20034;-80
2024/02/18 02:36:01;;;;;;;0.25;0.20;;;15.10;74.50;;;;;;5003502;28;20145;-80
2024/02/18 02:38:26;;;;;;;0.30;0.20;;;15.10;74.40;;;;;;5002158;28;20026;-81
2024/02/18 02:40:52;;;;;;;0.75;0.40;;;15.10;74.40;;;;;;4997908;28;20088;-81
2024/02/18 02:43:18;;;;;;;0.40;0.32;;;15.10;74.40;;;;;;5002235;28;20048;-81
2024/02/18 02:45:43;;;;;;;0.38;0.30;;;15.20;74.70;;;;;;5000230;28;20118;-81
2024/02/18 02:48:09;;;;;;;0.50;0.20;;;15.10;74.40;;;;;;5013876;28;20036;-80
2024/02/18 02:50:35;;;;;;;0.20;0.20;;;15.10;74.40;;;;;;4999615;28;20042;-81
2024/02/18 02:53:00;;;;;;;0.93;0.50;;;15.10;74.50;;;;;;5001067;28;20042;-81
2024/02/18 02:55:26;;;;;;;0.30;0.30;;;15.10;74.50;;;;;;5001493;28;20409;-80
2024/02/18 02:57:52;;;;;;;0.43;0.30;;;15.10;74.50;;;;;;5004029;28;20731;-81
2024/02/18 03:00:18;;;;;;;0.30;0.30;;;15.10;74.60;;;;;;5001591;28;20103;-81
2024/02/18 03:02:44;;;;;;;0.40;0.40;;;15.10;74.60;;;;;;5002155;28;20041;-81
2024/02/18 03:05:09;;;;;;;0.80;0.30;;;15.10;74.60;;;;;;4997130;28;20507;-81
2024/02/18 03:07:35;;;;;;;0.38;0.35;;;15.10;74.60;;;;;;4998875;28;20413;-80
2024/02/18 03:10:02;;;;;;;0.20;0.20;;;15.10;74.50;;;;;;5002459;28;20042;-80
2024/02/18 03:12:28;;;;;;;0.35;0.28;;;15.10;74.50;;;;;;5001740;28;20037;-81
2024/02/18 03:14:54;;;;;;;0.15;0.15;;;15.10;74.60;;;;;;5004347;28;20038;-80
2024/02/18 03:17:19;;;;;;;0.40;0.40;;;15.10;74.50;;;;;;5003732;28;20034;-80
2024/02/18 03:19:45;;;;;;;0.50;0.40;;;15.10;74.50;;;;;;5008138;28;20124;-80
2024/02/18 03:22:10;;;;;;;0.45;0.28;;;15.10;74.40;;;;;;4990667;28;20026;-80
2024/02/18 03:24:39;;;;;;;0.30;0.30;;;15.10;75.20;;;;;;5001523;28;20099;-81
2024/02/18 03:27:06;;;;;;;0.47;0.30;;;15.10;74.70;;;;;;5001531;28;20040;-80
2024/02/18 03:29:32;;;;;;;0.32;0.20;;;15.10;74.50;;;;;;5002469;28;20172;-81
2024/02/18 03:31:58;;;;;;;0.50;0.30;;;15.10;75.20;;;;;;5017376;28;20528;-80
2024/02/18 03:34:24;;;;;;;0.40;0.30;;;15.10;74.50;;;;;;5002703;28;20041;-81
2024/02/18 03:36:49;;;;;;;0.20;0.20;;;15.10;74.50;;;;;;5002603;28;20078;-80
2024/02/18 03:39:15;;;;;;;0.30;0.30;;;15.10;74.50;;;;;;5000797;28;20054;-80
2024/02/18 03:41:40;;;;;;;0.28;0.28;;;15.10;74.50;;;;;;5002528;28;20053;-81
2024/02/18 03:44:06;;;;;;;0.20;0.20;;;15.10;74.50;;;;;;4998847;28;20504;-80
2024/02/18 03:46:31;;;;;;;0.50;0.30;;;15.10;74.60;;;;;;5000555;28;20026;-81
2024/02/18 03:48:57;;;;;;;0.40;0.30;;;15.10;74.50;;;;;;4999454;28;20054;-80
2024/02/18 03:51:23;;;;;;;0.20;0.20;;;15.10;74.60;;;;;;5005005;28;20141;-81
2024/02/18 03:53:48;;;;;;;0.30;0.30;;;15.10;74.60;;;;;;5008208;28;20396;-81
2024/02/18 03:56:14;;;;;;;0.32;0.20;;;15.10;74.60;;;;;;4999323;28;20991;-81
2024/02/18 03:58:39;;;;;;;0.32;0.30;;;15.10;74.60;;;;;;5004265;28;20034;-81
2024/02/18 04:01:05;;;;;;;0.50;0.50;;;15.10;74.60;;;;;;5003565;28;20399;-80
2024/02/18 04:03:30;;;;;;;0.32;0.30;;;15.10;74.60;;;;;;5003009;28;20045;-80
2024/02/18 04:05:56;;;;;;;0.50;0.20;;;15.10;74.60;;;;;;5006118;28;20041;-80
2024/02/18 04:08:21;;;;;;;0.25;0.22;;;15.10;75.30;;;;;;5001257;28;20442;-81
2024/02/18 04:10:47;;;;;;;0.55;0.40;;;15.10;74.60;;;;;;5013539;28;20042;-80
2024/02/18 04:13:13;;;;;;;0.30;0.30;;;15.10;74.60;;;;;;5002820;28;20037;-80
2024/02/18 04:15:40;;;;;;;0.30;0.20;;;15.10;74.60;;;;;;5007980;28;20053;-81
2024/02/18 04:18:06;;;;;;;0.20;0.20;;;15.10;74.60;;;;;;5004436;28;20041;-81
2024/02/18 04:20:32;;;;;;;0.70;0.22;;;15.10;74.60;;;;;;5004313;28;20042;-81
2024/02/18 04:22:57;;;;;;;0.30;0.20;;;15.10;74.60;;;;;;5000225;28;20030;-81
2024/02/18 04:25:23;;;;;;;0.47;0.30;;;15.10;75.30;;;;;;5004623;28;20125;-80
2024/02/18 04:27:48;;;;;;;0.30;0.30;;;15.10;74.60;;;;;;5002972;28;20044;-80
2024/02/18 04:30:14;;;;;;;0.22;0.20;;;15.10;74.60;;;;;;4999282;28;20369;-80
2024/02/18 04:32:40;;;;;;;0.20;0.20;;;15.10;74.60;;;;;;5000819;28;20504;-81
2024/02/18 04:35:05;;;;;;;0.10;0.10;;;15.10;74.60;;;;;;5000508;28;20064;-81
2024/02/18 04:37:31;;;;;;;0.85;0.28;;;15.10;74.60;;;;;;5000117;28;20049;-81
2024/02/18 04:39:57;;;;;;;0.28;0.20;;;15.10;74.60;;;;;;5006566;28;20029;-81
2024/02/18 04:42:22;;;;;;;0.22;0.22;;;15.10;74.60;;;;;;5001140;28;20065;-81
2024/02/18 04:44:48;;;;;;;0.30;0.30;;;15.10;74.60;;;;;;5000626;28;20045;-81
2024/02/18 04:47:13;;;;;;;0.28;0.25;;;15.10;74.70;;;;;;5000165;28;20052;-80
2024/02/18 04:49:39;;;;;;;0.10;0.10;;;15.10;74.70;;;;;;5002110;28;20085;-81
2024/02/18 04:52:05;;;;;;;0.35;0.30;;;15.00;74.60;;;;;;5005233;28;20566;-81
2024/02/18 04:54:33;;;;;;;0.28;0.20;;;15.10;74.70;;;;;;5003953;28;20072;-81
2024/02/18 04:56:58;;;;;;;0.28;0.20;;;15.10;74.60;;;;;;4999654;28;20038;-81
2024/02/18 04:59:24;;;;;;;0.25;0.25;;;15.10;74.60;;;;;;5018987;28;20061;-81
2024/02/18 05:01:49;;;;;;;0.35;0.20;;;15.10;74.70;;;;;;5001815;28;20080;-80
2024/02/18 05:04:15;;;;;;;0.30;0.20;;;15.10;74.80;;;;;;4998838;28;20030;-81
2024/02/18 05:06:47;;;;;;;0.20;0.20;;;15.10;74.60;;;;;;5005716;28;20053;-80
2024/02/18 05:09:13;;;;;;;0.40;0.30;;;15.10;74.60;;;;;;4983617;28;20113;-80
2024/02/18 05:11:38;;;;;;;0.28;0.28;;;15.10;74.70;;;;;;5005251;28;20122;-81
2024/02/18 05:14:04;;;;;;;0.40;0.20;;;15.10;74.70;;;;;;4999938;28;20037;-80
2024/02/18 05:16:29;;;;;;;0.10;0.10;;;15.10;74.70;;;;;;5001692;28;20519;-81
2024/02/18 05:18:55;;;;;;;0.38;0.38;;;15.00;74.60;;;;;;5006093;28;20391;-81
2024/02/18 05:21:21;;;;;;;0.40;0.30;;;15.00;74.70;;;;;;4999472;28;20041;-80
2024/02/18 05:23:47;;;;;;;0.25;0.20;;;15.10;74.70;;;;;;5017938;28;20053;-80
2024/02/18 05:26:12;;;;;;;0.45;0.30;;;15.10;74.80;;;;;;5014560;28;20037;-80
2024/02/18 05:28:38;;;;;;;0.30;0.20;;;15.00;74.70;;;;;;4999145;28;20066;-81
2024/02/18 05:31:19;;;;;;;0.20;0.10;;;15.00;74.70;;;;;;4996314;28;20047;-80
2024/02/18 05:33:44;;;;;;;0.10;0.10;;;15.00;74.70;;;;;;4971754;28;22321;-81
2024/02/18 05:36:10;;;;;;;0.47;0.35;;;15.10;74.80;;;;;;5016221;28;20695;-80
2024/02/18 05:38:36;;;;;;;0.20;0.20;;;15.00;74.80;;;;;;5017426;28;20471;-81
2024/02/18 05:41:01;;;;;;;0.20;0.10;;;15.10;74.80;;;;;;4999518;28;20041;-80
2024/02/18 05:43:27;;;;;;;0.20;0.10;;;15.00;74.70;;;;;;5002028;28;20045;-80
2024/02/18 05:45:52;;;;;;;0.38;0.20;;;15.00;74.80;;;;;;5005125;28;20435;-81
2024/02/18 05:48:18;;;;;;;0.40;0.22;;;15.00;74.80;;;;;;4999272;28;20611;-80
2024/02/18 05:50:44;;;;;;;0.30;0.30;;;15.00;75.50;;;;;;5017218;28;20038;-80
2024/02/18 05:53:09;;;;;;;0.22;0.20;;;15.00;75.50;;;;;;4971493;28;20121;-81
2024/02/18 05:55:35;;;;;;;0.40;0.40;;;15.00;74.80;;;;;;5003551;28;20070;-80
2024/02/18 05:58:00;;;;;;;0.30;0.20;;;15.00;74.80;;;;;;5001478;28;20049;-80
2024/02/18 06:00:26;;;;;;;0.47;0.22;;;15.00;74.80;;;;;;5001671;28;20054;-80
2024/02/18 06:02:51;;;;;;;0.20;0.20;;;15.00;74.80;;;;;;4997885;28;20535;-80
2024/02/18 06:05:17;;;;;;;0.50;0.20;;;15.00;74.70;;;;;;5016458;28;20046;-81
2024/02/18 06:07:45;;;;;;;0.10;0.10;;;15.10;74.80;;;;;;5018371;28;20038;-80
2024/02/18 06:10:10;;;;;;;0.15;0.15;;;15.00;74.80;;;;;;5001063;28;20060;-80
2024/02/18 06:12:36;;;;;;;0.30;0.10;;;15.00;74.70;;;;;;4997824;28;20038;-80
2024/02/18 06:15:01;;;;;;;0.40;0.17;;;15.00;75.10;;;;;;5002602;28;20133;-80
2024/02/18 06:17:27;;;;;;;0.43;0.28;;;15.00;74.70;;;;;;4996899;28;20038;-81
2024/02/18 06:19:53;;;;;;;0.60;0.20;;;15.00;74.70;;;;;;5001616;28;20565;-81
2024/02/18 06:22:18;;;;;;;0.20;0.20;;;15.00;74.80;;;;;;4999517;28;20680;-81
2024/02/18 06:24:44;;;;;;;0.28;0.20;;;15.00;74.80;;;;;;4999509;28;20087;-81
2024/02/18 06:27:10;;;;;;;0.20;0.20;;;15.00;74.80;;;;;;5013798;28;20048;-80
2024/02/18 06:29:36;;;;;;;0.47;0.20;;;15.00;74.70;;;;;;4994995;28;20061;-81
2024/02/18 06:32:02;;;;;;;0.40;0.20;;;15.00;74.70;;;;;;5002323;28;20538;-81
2024/02/18 06:34:28;;;;;;;0.40;0.15;;;15.00;75.50;;;;;;5000295;28;20066;-81
2024/02/18 06:36:53;;;;;;;0.30;0.30;;;15.00;74.80;;;;;;5015501;28;20068;-80
2024/02/18 06:39:19;;;;;;;0.15;0.10;;;15.00;74.80;;;;;;5001964;28;20041;-81
2024/02/18 06:41:44;;;;;;;0.20;0.20;;;15.10;74.80;;;;;;5016457;28;20455;-80
2024/02/18 06:44:10;;;;;;;0.10;0.10;;;15.10;74.80;;;;;;5015321;28;20401;-80
2024/02/18 06:46:35;;;;;;;0.45;0.40;;;15.10;74.80;;;;;;4985095;28;20046;-80
2024/02/18 06:49:01;;;;;;;0.32;0.20;;;15.10;74.80;;;;;;5010219;28;20042;-80
2024/02/18 06:51:26;;;;;;;0.75;0.30;;;15.10;74.70;;;;;;5001538;28;20121;-80
2024/02/18 06:53:52;;;;;;;0.25;0.20;;;15.10;75.60;;;;;;5015045;28;20061;-80
2024/02/18 06:56:18;;;;;;;0.10;0.10;;;15.10;74.80;;;;;;5004037;28;20049;-80
2024/02/18 06:58:43;;;;;;;0.17;0.17;;;15.00;74.80;;;;;;5007569;28;20057;-80
2024/02/18 07:01:09;;;;;;;0.40;0.30;;;15.00;75.60;;;;;;5005278;28;20511;-79
2024/02/18 07:03:35;;;;;;;0.30;0.30;;;15.00;74.90;;;;;;5008031;28;20455;-80
2024/02/18 07:06:00;;;;;;;0.40;0.25;;;15.00;74.90;;;;;;5004005;28;20050;-80
2024/02/18 07:08:26;;;;;;;0.20;0.20;;;15.00;74.80;;;;;;5001409;28;20626;-80
2024/02/18 07:10:51;;;;;;;0.20;0.13;;;15.00;75.00;;;;;;5006521;28;20038;-80
2024/02/18 07:13:17;;;;;;;0.40;0.30;;;15.10;75.00;;;;;;5005962;28;20046;-80
2024/02/18 07:15:42;;;;;;;0.40;0.30;;;15.00;74.90;;;;;;5007574;28;20037;-79
2024/02/18 07:18:08;;;;;;;0.30;0.10;;;15.00;74.80;;;;;;5001320;28;20070;-79
2024/02/18 07:20:34;;;;;;;0.40;0.15;;;15.00;74.80;;;;;;5003986;28;20061;-80
2024/02/18 07:23:00;;;;;;;0.17;0.17;;;15.00;74.90;;;;;;5003686;28;20128;-80
2024/02/18 07:25:26;;;;;;;0.20;0.20;;;15.00;74.80;;;;;;5004619;28;20046;-79
2024/02/18 07:27:51;;;;;;;0.30;0.20;;;15.00;74.90;;;;;;5005626;28;20045;-80
2024/02/18 07:30:17;;;;;;;0.30;0.20;;;15.00;74.90;;;;;;5002751;28;20337;-79
2024/02/18 07:32:42;;;;;;;0.20;0.20;;;15.10;75.70;;;;;;5005640;28;20069;-79
2024/02/18 07:35:08;;;;;;;0.20;0.10;;;15.00;74.80;;;;;;5005001;28;20045;-80
2024/02/18 07:37:33;;;;;;;0.43;0.20;;;15.10;74.80;;;;;;5003073;28;20052;-80
2024/02/18 07:39:59;;;;;;;0.43;0.30;;;15.00;74.90;;;;;;5005942;28;20500;-80
2024/02/18 07:42:25;;;;;;;0.20;0.20;;;15.00;74.90;;;;;;5001240;28;20060;-80
2024/02/18 07:44:51;;;;;;;0.20;0.20;;;15.00;74.90;;;;;;5004024;28;20050;-80
2024/02/18 07:47:18;;;;;;;0.13;0.10;;;15.00;74.90;;;;;;4999330;28;20466;-80
2024/02/18 07:49:46;;;;;;;0.60;0.30;;;15.00;75.00;;;;;;5006294;28;20050;-80
2024/02/18 07:52:11;;;;;;;0.50;0.17;;;15.00;74.80;;;;;;5004313;28;20069;-79
2024/02/18 07:54:37;;;;;;;0.30;0.20;;;15.00;74.90;;;;;;5005734;28;20072;-80
2024/02/18 07:57:03;;;;;;;0.20;0.10;;;15.00;75.00;;;;;;5002881;28;20038;-81
2024/02/18 07:59:28;;;;;;;0.40;0.20;;;15.00;74.90;;;;;;5003084;28;21018;-80
2024/02/18 08:01:54;;;;;;;0.10;0.10;;;15.00;74.90;;;;;;5000517;28;20037;-80
2024/02/18 08:04:20;;;;;;;0.47;0.22;;;15.00;74.90;;;;;;5001987;28;20076;-80
2024/02/18 08:06:45;;;;;;;0.20;0.10;;;15.00;74.80;;;;;;5004054;28;20542;-80
2024/02/18 08:09:11;;;;;;;0.20;0.20;;;15.00;74.80;;;;;;4997305;28;20046;-80
2024/02/18 08:11:36;;;;;;;0.50;0.30;;;15.00;75.00;;;;;;5002866;28;20050;-79
2024/02/18 08:14:02;;;;;;;0.10;0.10;;;15.00;74.90;;;;;;5000046;28;20037;-80
2024/02/18 08:16:28;;;;;;;0.10;0.10;;;15.00;74.90;;;;;;5000861;28;20046;-80
2024/02/18 08:18:54;;;;;;;0.10;0.08;;;15.00;75.10;;;;;;5002399;28;20389;-80
2024/02/18 08:21:20;;;;;;;0.50;0.10;;;15.00;75.10;;;;;;5005288;28;20504;-79
2024/02/18 08:23:46;;;;;;;0.13;0.10;;;15.00;74.90;;;;;;5016310;28;20045;-80
2024/02/18 08:26:25;;;;;;;0.30;0.20;;;15.10;75.00;;;;;;5001866;28;20432;-79
2024/02/18 08:28:51;;;;;;;0.38;0.20;;;15.00;74.90;;;;;;5005736;28;20041;-79
2024/02/18 08:31:16;;;;;;;0.20;0.20;;;15.00;74.90;;;;;;5004125;28;20072;-80
2024/02/18 08:33:42;;;;;;;0.30;0.10;;;15.00;75.00;;;;;;5007046;28;20652;-80
2024/02/18 08:36:08;;;;;;;0.00;0.00;;;15.00;74.90;;;;;;5003482;28;20050;-80
2024/02/18 08:38:33;;;;;;;0.68;0.20;;;15.00;75.00;;;;;;5018095;28;20492;-80
2024/02/18 08:40:59;;;;;;;0.30;0.10;;;15.00;75.00;;;;;;5001385;28;20178;-80
2024/02/18 08:43:24;;;;;;;0.20;0.10;;;15.00;75.10;;;;;;5000765;28;20570;-79
2024/02/18 08:45:50;;;;;;;0.20;0.20;;;15.00;75.00;;;;;;5002171;28;20140;-80
2024/02/18 08:48:15;;;;;;;0.30;0.10;;;15.00;75.00;;;;;;5003722;28;20078;-80
2024/02/18 08:50:41;;;;;;;0.47;0.30;;;15.00;75.10;;;;;;5003326;28;20042;-79
2024/02/18 08:53:06;;;;;;;0.10;0.10;;;15.00;74.90;;;;;;5005887;28;20557;-80
2024/02/18 08:55:32;;;;;;;0.30;0.25;;;15.00;75.10;;;;;;4999035;28;20134;-80
2024/02/18 08:57:58;;;;;;;0.25;0.20;;;15.00;75.10;;;;;;5006023;28;20045;-80
2024/02/18 09:00:23;;;;;;;0.20;0.13;;;15.00;75.00;;;;;;4998136;28;20508;-80
2024/02/18 09:02:49;;;;;;;0.30;0.10;;;15.00;75.10;;;;;;5001967;28;20095;-80
2024/02/18 09:05:15;;;;;;;0.10;0.10;;;15.00;75.10;;;;;;5004183;28;20042;-79
2024/02/18 09:07:40;;;;;;;0.17;0.10;;;15.00;74.90;;;;;;5018674;28;20046;-80
2024/02/18 09:10:06;;;;;;;0.10;0.10;;;15.00;75.10;;;;;;5002425;28;20034;-80
2024/02/18 09:12:32;;;;;;;0.10;0.10;;;15.00;75.10;;;;;;5003925;28;20107;-80
2024/02/18 09:14:58;;;;;;;0.43;0.20;;;15.00;75.10;;;;;;4997337;28;20050;-80
2024/02/18 09:17:24;;;;;;;0.15;0.10;;;15.00;74.80;;;;;;4998019;28;22201;-80
2024/02/18 09:19:50;;;;;;;0.08;0.00;;;15.00;74.80;;;;;;5000346;28;20037;-80
2024/02/18 09:22:15;;;;;;;0.05;0.05;;;15.00;74.60;;;;;;5020358;28;20042;-80
2024/02/18 09:24:44;;;;;;;0.17;0.17;;;15.00;74.40;;;;;;5002366;28;20050;-80
2024/02/18 09:27:09;;;;;;;0.10;0.10;;;15.00;74.80;;;;;;4999519;28;20072;-80
2024/02/18 09:29:35;;;;;;;0.50;0.20;;;15.00;75.10;;;;;;5002040;28;20085;-79
2024/02/18 09:32:01;;;;;;;0.10;0.10;;;15.00;75.00;;;;;;5001944;28;20038;-80
2024/02/18 09:34:27;;;;;;;0.10;0.10;;;15.00;74.60;;;;;;5000149;28;20466;-80
2024/02/18 09:36:52;;;;;;;0.10;0.10;;;15.00;74.40;;;;;;5004222;28;20106;-80
2024/02/18 09:39:18;;;;;;;0.20;0.10;;;15.00;74.40;;;;;;4999081;28;20042;-79
2024/02/18 09:41:45;;;;;;;0.10;0.10;;;15.00;74.80;;;;;;4999882;28;20042;-80
2024/02/18 09:44:11;;;;;;;0.10;0.10;;;15.00;74.40;;;;;;5001810;28;20073;-80
2024/02/18 09:46:36;;;;;;;0.17;0.15;;;15.00;74.70;;;;;;5018294;28;20084;-80
2024/02/18 09:49:05;;;;;;;0.30;0.10;;;15.00;75.10;;;;;;5005779;28;20555;-80
2024/02/18 09:51:35;;;;;;;0.25;0.17;;;15.10;75.00;;;;;;5000119;28;20096;-80
2024/02/18 09:54:03;;;;;;;0.20;0.20;;;15.00;75.10;;;;;;5019454;28;20153;-80
2024/02/18 09:56:29;;;;;;;0.10;0.10;;;15.00;75.10;;;;;;5013874;28;20050;-80
2024/02/18 09:58:54;;;;;;;0.13;0.13;;;15.00;75.10;;;;;;5016901;28;20095;-80
2024/02/18 10:01:21;;;;;;;0.52;0.20;;;15.10;74.70;;;;;;5001561;28;20748;-80
2024/02/18 10:03:48;;;;;;;0.22;0.20;;;15.00;74.80;;;;;;4999834;28;20504;-80
2024/02/18 10:06:14;;;;;;;0.10;0.10;;;15.00;74.90;;;;;;5003255;28;20045;-80
2024/02/18 10:08:44;;;;;;;0.10;0.10;;;15.00;75.00;;;;;;5002763;28;20125;-80
2024/02/18 10:11:09;;;;;;;0.35;0.10;;;15.00;74.90;;;;;;5002563;28;20045;-80
2024/02/18 10:13:35;;;;;;;0.20;0.20;;;15.10;75.10;;;;;;4985288;28;20405;-80
2024/02/18 10:16:01;;;;;;;0.10;0.00;;;15.00;74.80;;;;;;5001110;28;20050;-80
2024/02/18 10:18:27;;;;;;;0.30;0.17;;;15.00;74.80;;;;;;5012521;28;20088;-80
2024/02/18 10:20:54;;;;;;;0.20;0.20;;;15.00;75.20;;;;;;4998441;28;20131;-80
2024/02/18 10:23:20;;;;;;;0.10;0.10;;;15.00;74.70;;;;;;5015014;28;20050;-79
2024/02/18 10:25:49;;;;;;;0.10;0.10;;;15.00;74.80;;;;;;5000646;28;20462;-80
2024/02/18 10:28:17;;;;;;;0.10;0.10;;;15.00;74.70;;;;;;5003686;28;20049;-80
2024/02/18 10:30:43;;;;;;;0.10;0.10;;;15.00;75.10;;;;;;5001771;28;20508;-80
2024/02/18 10:33:09;;;;;;;0.00;0.00;;;15.00;76.10;;;;;;5002362;28;20038;-80
2024/02/18 10:35:34;;;;;;;0.15;0.10;;;15.10;74.90;;;;;;5000293;28;20136;-80
2024/02/18 10:38:01;;;;;;;0.28;0.13;;;15.00;75.10;;;;;;5002696;28;20061;-80
2024/02/18 10:40:34;;;;;;;0.10;0.10;;;15.00;75.50;;;;;;5000197;28;20518;-80
2024/02/18 10:43:03;;;;;;;0.10;0.10;;;15.00;74.70;;;;;;5015588;28;20578;-80
2024/02/18 10:45:28;;;;;;;0.10;0.10;;;15.00;75.10;;;;;;5001410;28;20080;-79
2024/02/18 10:47:55;;;;;;;0.63;0.10;;;15.00;75.20;;;;;;5017102;28;20065;-80
2024/02/18 10:50:27;;;;;;;0.10;0.10;;;15.00;75.20;;;;;;5015583;28;20434;-80
2024/02/18 10:53:02;;;;;;;0.17;0.08;;;15.00;74.90;;;;;;5000820;28;20129;-80
2024/02/18 10:55:41;;;;;;;0.10;0.10;;;15.00;75.20;;;;;;4999904;28;20646;-79
2024/02/18 10:58:15;;;;;;;0.20;0.10;;;15.00;74.80;;;;;;5013922;28;20042;-80
2024/02/18 11:00:43;;;;;;;0.10;0.10;;;15.00;75.00;;;;;;5002184;28;20599;-80
2024/02/18 11:03:12;;;;;;;0.10;0.10;;;15.00;75.40;;;;;;5015803;28;20042;-80
2024/02/18 11:05:38;;;;;;;0.10;0.10;;;15.00;75.10;;;;;;5015214;28;20522;-80
2024/02/18 11:08:07;;;;;;;0.17;0.10;;;15.00;74.90;;;;;;5014797;28;20096;-80
2024/02/18 11:10:34;;;;;;;0.10;0.08;;;15.10;74.60;;;;;;5013850;28;20050;-79
2024/02/18 11:12:59;;;;;;;0.15;0.10;;;15.10;74.50;;;;;;5000581;28;20470;-80
2024/02/18 11:15:25;;;;;;;0.10;0.00;;;15.10;74.70;;;;;;5003171;28;20589;-79
2024/02/18 11:17:50;;;;;;;0.25;0.20;;;15.10;75.40;;;;;;5001124;28;20042;-80
2024/02/18 11:20:16;;;;;;;0.10;0.10;;;15.10;75.40;;;;;;5019502;28;20041;-80
2024/02/18 11:22:42;;;;;;;0.15;0.13;;;15.10;74.70;;;;;;5017392;28;20046;-80
2024/02/18 11:25:07;;;;;;;0.10;0.10;;;15.10;75.00;;;;;;5002574;28;20034;-80
2024/02/18 11:27:34;;;;;;;0.10;0.10;;;15.10;74.60;;;;;;5000276;28;20042;-80
2024/02/18 11:30:00;;;;;;;0.10;0.10;;;15.10;75.10;;;;;;4999813;28;20046;-79
2024/02/18 11:32:26;;;;;;;0.10;0.10;;;15.10;75.70;;;;;;5013171;28;20050;-80
2024/02/18 11:34:51;;;;;;;0.10;0.10;;;15.10;75.30;;;;;;5018803;28;20034;-80
2024/02/18 11:37:33;;;;;;;0.10;0.10;;;15.10;75.40;;;;;;5007001;28;20053;-80
2024/02/18 11:40:03;;;;;;;0.20;0.10;;;15.10;74.70;;;;;;4999358;28;20042;-80
2024/02/18 11:42:29;;;;;;;0.10;0.00;;;15.10;75.20;;;;;;5021145;28;20124;-80
2024/02/18 11:45:13;;;;;;;0.10;0.10;;;15.10;75.30;;;;;;5018856;28;20507;-80
2024/02/18 11:47:45;;;;;;;;;;;15.10;75.30;;;;;;5006144;28;20173;-79
2024/02/18 11:50:10;;;;;;;0.25;0.25;;;15.10;75.30;;;;;;5005991;28;19937;-80
2024/02/18 11:52:36;;;;;;;0.10;0.03;;;15.10;74.80;;;;;;5001624;28;20046;-80
2024/02/18 11:55:11;;;;;;;0.10;0.10;;;15.10;76.00;;;;;;5020032;28;20041;-81
2024/02/18 11:57:37;;;;;;;0.10;0.10;;;15.10;75.50;;;;;;5006270;28;20041;-80
2024/02/18 12:00:03;;;;;;;0.00;0.00;;;15.10;75.60;;;;;;5018460;28;20041;-80
2024/02/18 12:02:29;;;;;;;0.10;0.10;;;15.10;75.30;;;;;;5015076;28;20653;-80
2024/02/18 12:04:55;;;;;;;0.10;0.00;;;15.10;75.30;;;;;;5018950;28;20120;-80
2024/02/18 12:07:20;;;;;;;0.10;0.10;;;15.10;75.20;;;;;;4988221;28;20037;-80
2024/02/18 12:09:46;;;;;;;0.25;0.20;;;15.10;75.50;;;;;;5006400;28;20042;-80
2024/02/18 12:12:11;;;;;;;0.17;0.17;;;15.10;75.40;;;;;;5005322;28;20046;-80
2024/02/18 12:14:50;;;;;;;0.35;0.10;;;15.10;75.50;;;;;;4998329;28;20046;-79
2024/02/18 12:17:17;;;;;;;0.20;0.10;;;15.10;75.60;;;;;;5001621;28;20046;-81
2024/02/18 12:19:42;;;;;;;0.08;0.08;;;15.20;75.60;;;;;;5004298;28;20077;-79
2024/02/18 12:22:08;;;;;;;0.10;0.10;;;15.10;75.40;;;;;;5003848;28;20452;-80
2024/02/18 12:24:33;;;;;;;0.15;0.15;;;15.20;75.40;;;;;;5005412;28;20041;-80
2024/02/18 12:26:59;;;;;;;0.20;0.10;;;15.20;75.40;;;;;;5002414;28;20049;-79
2024/02/18 12:29:24;;;;;;;0.00;0.00;;;15.20;75.40;;;;;;5003141;28;20053;-80
2024/02/18 12:31:50;;;;;;;0.30;0.10;;;15.10;75.10;;;;;;4999542;28;20061;-80
2024/02/18 12:34:21;;;;;;;0.00;0.00;;;15.20;75.10;;;;;;5019742;28;20080;-80
2024/02/18 12:36:47;;;;;;;0.22;0.05;;;15.20;75.00;;;;;;5001948;28;20085;-80
2024/02/18 12:39:12;;;;;;;0.45;0.10;;;15.20;75.00;;;;;;5006845;28;20065;-80
2024/02/18 12:41:38;;;;;;;0.00;0.00;;;15.20;75.00;;;;;;5014178;28;20046;-80